sensor_id;sensor_type;location;lat;lon;timestamp;pressure;altitude;pressure_sealevel;temperature;humidity
43488;BME280;29078;41.932;25.554;2023-07-29T00:00:48;99282.00;;;25.27;38.74
43488;BME280;29078;41.932;25.554;2023-07-29T00:03:13;99277.63;;;25.26;39.31
43488;BME280;29078;41.932;25.554;2023-07-29T00:05:39;99274.94;;;25.26;38.01
43488;BME280;29078;41.932;25.554;2023-07-29T00:08:04;99275.50;;;25.23;38.14
43488;BME280;29078;41.932;25.554;2023-07-29T00:10:32;99273.06;;;25.21;39.35
43488;BME280;29078;41.932;25.554;2023-07-29T00:13:00;99274.19;;;25.15;38.41
43488;BME280;29078;41.932;25.554;2023-07-29T00:15:25;99289.38;;;25.06;38.79
43488;BME280;29078;41.932;25.554;2023-07-29T00:17:50;99291.03;;;24.97;37.74
43488;BME280;29078;41.932;25.554;2023-07-29T00:20:16;99287.28;;;24.98;37.64
43488;BME280;29078;41.932;25.554;2023-07-29T00:22:41;99283.75;;;24.97;37.24
43488;BME280;29078;41.932;25.554;2023-07-29T00:25:06;99281.88;;;24.98;37.09
43488;BME280;29078;41.932;25.554;2023-07-29T00:27:32;99287.00;;;24.94;37.64
43488;BME280;29078;41.932;25.554;2023-07-29T00:29:57;99281.59;;;24.94;37.73
43488;BME280;29078;41.932;25.554;2023-07-29T00:32:22;99286.47;;;24.92;37.26
43488;BME280;29078;41.932;25.554;2023-07-29T00:34:47;99279.19;;;24.88;37.46
43488;BME280;29078;41.932;25.554;2023-07-29T00:37:13;99280.84;;;24.84;37.20
43488;BME280;29078;41.932;25.554;2023-07-29T00:39:38;99293.25;;;24.85;37.34
43488;BME280;29078;41.932;25.554;2023-07-29T00:42:04;99282.44;;;24.85;37.86
43488;BME280;29078;41.932;25.554;2023-07-29T00:44:29;99271.66;;;24.80;37.19
43488;BME280;29078;41.932;25.554;2023-07-29T00:46:56;99266.81;;;24.77;37.18
43488;BME280;29078;41.932;25.554;2023-07-29T00:49:22;99271.41;;;24.76;37.57
43488;BME280;29078;41.932;25.554;2023-07-29T00:51:47;99258.19;;;24.75;38.20
43488;BME280;29078;41.932;25.554;2023-07-29T00:54:13;99254.97;;;24.73;37.73
43488;BME280;29078;41.932;25.554;2023-07-29T00:56:38;99258.22;;;24.69;37.67
43488;BME280;29078;41.932;25.554;2023-07-29T00:59:03;99257.16;;;24.65;39.27
43488;BME280;29078;41.932;25.554;2023-07-29T01:01:29;99261.78;;;24.60;38.73
43488;BME280;29078;41.932;25.554;2023-07-29T01:03:54;99263.94;;;24.58;38.12
43488;BME280;29078;41.932;25.554;2023-07-29T01:06:29;99264.75;;;24.58;37.28
43488;BME280;29078;41.932;25.554;2023-07-29T01:09:03;99259.88;;;24.60;38.27
43488;BME280;29078;41.932;25.554;2023-07-29T01:11:38;99258.00;;;24.61;38.30
43488;BME280;29078;41.932;25.554;2023-07-29T01:16:39;99254.50;;;24.60;37.54
43488;BME280;29078;41.932;25.554;2023-07-29T01:19:06;99262.34;;;24.47;39.19
43488;BME280;29078;41.932;25.554;2023-07-29T01:21:35;99271.56;;;24.35;38.53
43488;BME280;29078;41.932;25.554;2023-07-29T01:24:00;99258.63;;;24.22;39.44
43488;BME280;29078;41.932;25.554;2023-07-29T01:26:26;99264.88;;;24.02;40.45
43488;BME280;29078;41.932;25.554;2023-07-29T01:28:53;99267.88;;;23.86;41.31
43488;BME280;29078;41.932;25.554;2023-07-29T01:33:53;99266.78;;;23.66;41.53
43488;BME280;29078;41.932;25.554;2023-07-29T01:36:21;99273.78;;;23.57;42.01
43488;BME280;29078;41.932;25.554;2023-07-29T01:38:48;99272.13;;;23.41;41.44
43488;BME280;29078;41.932;25.554;2023-07-29T01:41:14;99270.22;;;23.31;42.11
43488;BME280;29078;41.932;25.554;2023-07-29T01:43:41;99271.84;;;23.17;41.21
43488;BME280;29078;41.932;25.554;2023-07-29T01:46:09;99273.97;;;23.05;41.77
43488;BME280;29078;41.932;25.554;2023-07-29T01:48:35;99279.03;;;22.96;42.37
43488;BME280;29078;41.932;25.554;2023-07-29T01:51:00;99279.25;;;22.85;44.54
43488;BME280;29078;41.932;25.554;2023-07-29T01:53:26;99287.56;;;22.78;43.17
43488;BME280;29078;41.932;25.554;2023-07-29T01:55:51;99286.47;;;22.74;43.11
43488;BME280;29078;41.932;25.554;2023-07-29T01:58:16;99295.06;;;22.71;44.85
43488;BME280;29078;41.932;25.554;2023-07-29T02:00:41;99288.03;;;22.65;43.58
43488;BME280;29078;41.932;25.554;2023-07-29T02:03:07;99279.41;;;22.58;44.26
43488;BME280;29078;41.932;25.554;2023-07-29T02:05:32;99273.72;;;22.49;44.60
43488;BME280;29078;41.932;25.554;2023-07-29T02:07:57;99272.09;;;22.48;44.73
43488;BME280;29078;41.932;25.554;2023-07-29T02:10:22;99271.03;;;22.54;43.65
43488;BME280;29078;41.932;25.554;2023-07-29T02:12:48;99277.25;;;22.55;44.57
43488;BME280;29078;41.932;25.554;2023-07-29T02:15:13;99273.75;;;22.59;43.13
43488;BME280;29078;41.932;25.554;2023-07-29T02:17:41;99276.47;;;22.64;43.90
43488;BME280;29078;41.932;25.554;2023-07-29T02:20:06;99273.78;;;22.64;43.86
43488;BME280;29078;41.932;25.554;2023-07-29T02:22:32;99284.53;;;22.64;43.40
43488;BME280;29078;41.932;25.554;2023-07-29T02:24:57;99287.75;;;22.61;45.57
43488;BME280;29078;41.932;25.554;2023-07-29T02:27:23;99283.69;;;22.54;45.66
43488;BME280;29078;41.932;25.554;2023-07-29T02:29:51;99280.19;;;22.53;43.09
43488;BME280;29078;41.932;25.554;2023-07-29T02:32:17;99279.38;;;22.47;44.25
43488;BME280;29078;41.932;25.554;2023-07-29T02:34:42;99283.66;;;22.48;45.39
43488;BME280;29078;41.932;25.554;2023-07-29T02:37:07;99287.22;;;22.59;44.67
43488;BME280;29078;41.932;25.554;2023-07-29T02:39:33;99281.81;;;22.54;44.51
43488;BME280;29078;41.932;25.554;2023-07-29T02:41:58;99281.25;;;22.52;45.39
43488;BME280;29078;41.932;25.554;2023-07-29T02:44:23;99282.84;;;22.48;43.93
43488;BME280;29078;41.932;25.554;2023-07-29T02:46:49;99297.09;;;22.43;42.48
43488;BME280;29078;41.932;25.554;2023-07-29T02:49:14;99305.06;;;22.28;46.25
43488;BME280;29078;41.932;25.554;2023-07-29T02:51:39;99305.81;;;22.18;43.55
43488;BME280;29078;41.932;25.554;2023-07-29T02:54:05;99306.28;;;22.10;43.33
43488;BME280;29078;41.932;25.554;2023-07-29T02:56:30;99310.28;;;22.03;44.90
43488;BME280;29078;41.932;25.554;2023-07-29T02:58:58;99320.66;;;21.94;45.44
43488;BME280;29078;41.932;25.554;2023-07-29T03:01:23;99313.13;;;21.91;46.96
43488;BME280;29078;41.932;25.554;2023-07-29T03:03:50;99316.53;;;21.81;44.75
43488;BME280;29078;41.932;25.554;2023-07-29T03:06:15;99325.13;;;21.78;46.68
43488;BME280;29078;41.932;25.554;2023-07-29T03:08:40;99331.81;;;21.76;45.73
43488;BME280;29078;41.932;25.554;2023-07-29T03:11:06;99335.53;;;21.70;45.70
43488;BME280;29078;41.932;25.554;2023-07-29T03:13:32;99330.88;;;21.60;46.25
43488;BME280;29078;41.932;25.554;2023-07-29T03:16:07;99330.31;;;21.58;46.67
43488;BME280;29078;41.932;25.554;2023-07-29T03:18:33;99330.31;;;21.58;44.26
43488;BME280;29078;41.932;25.554;2023-07-29T03:20:58;99328.34;;;21.53;47.64
43488;BME280;29078;41.932;25.554;2023-07-29T03:23:24;99332.09;;;21.52;44.16
43488;BME280;29078;41.932;25.554;2023-07-29T03:25:49;99333.69;;;21.48;45.97
43488;BME280;29078;41.932;25.554;2023-07-29T03:28:16;99333.94;;;21.47;44.76
43488;BME280;29078;41.932;25.554;2023-07-29T03:30:41;99333.13;;;21.46;44.66
43488;BME280;29078;41.932;25.554;2023-07-29T03:33:07;99325.06;;;21.46;46.63
43488;BME280;29078;41.932;25.554;2023-07-29T03:35:32;99325.06;;;21.46;46.53
43488;BME280;29078;41.932;25.554;2023-07-29T03:37:57;99322.38;;;21.46;44.93
43488;BME280;29078;41.932;25.554;2023-07-29T03:40:22;99324.56;;;21.49;44.71
43488;BME280;29078;41.932;25.554;2023-07-29T03:42:48;99319.19;;;21.49;45.65
43488;BME280;29078;41.932;25.554;2023-07-29T03:45:13;99327.50;;;21.48;46.38
43488;BME280;29078;41.932;25.554;2023-07-29T03:47:38;99330.19;;;21.48;45.45
43488;BME280;29078;41.932;25.554;2023-07-29T03:50:04;99327.25;;;21.49;45.84
43488;BME280;29078;41.932;25.554;2023-07-29T03:52:29;99331.00;;;21.48;46.34
43488;BME280;29078;41.932;25.554;2023-07-29T03:54:55;99330.56;;;21.56;47.09
43488;BME280;29078;41.932;25.554;2023-07-29T03:57:20;99336.53;;;21.64;45.49
43488;BME280;29078;41.932;25.554;2023-07-29T03:59:46;99349.22;;;21.68;46.42
43488;BME280;29078;41.932;25.554;2023-07-29T04:02:11;99353.22;;;21.66;46.98
43488;BME280;29078;41.932;25.554;2023-07-29T04:04:36;99360.78;;;21.69;45.25
43488;BME280;29078;41.932;25.554;2023-07-29T04:07:03;99356.75;;;21.71;43.99
43488;BME280;29078;41.932;25.554;2023-07-29T04:09:28;99361.78;;;21.63;46.04
43488;BME280;29078;41.932;25.554;2023-07-29T04:11:53;99361.84;;;21.68;46.27
43488;BME280;29078;41.932;25.554;2023-07-29T04:14:19;99360.00;;;21.73;45.46
43488;BME280;29078;41.932;25.554;2023-07-29T04:16:44;99359.75;;;21.75;47.18
43488;BME280;29078;41.932;25.554;2023-07-29T04:19:10;99366.53;;;21.82;44.99
43488;BME280;29078;41.932;25.554;2023-07-29T04:21:35;99359.03;;;21.84;45.14
43488;BME280;29078;41.932;25.554;2023-07-29T04:24:00;99369.25;;;21.87;46.05
43488;BME280;29078;41.932;25.554;2023-07-29T04:26:26;99365.22;;;21.85;47.26
43488;BME280;29078;41.932;25.554;2023-07-29T04:28:51;99367.66;;;21.86;45.38
43488;BME280;29078;41.932;25.554;2023-07-29T04:31:16;99369.59;;;21.96;44.97
43488;BME280;29078;41.932;25.554;2023-07-29T04:33:42;99368.09;;;22.05;44.59
43488;BME280;29078;41.932;25.554;2023-07-29T04:36:07;99372.16;;;22.08;44.95
43488;BME280;29078;41.932;25.554;2023-07-29T04:38:32;99366.56;;;22.14;45.60
43488;BME280;29078;41.932;25.554;2023-07-29T04:40:58;99370.34;;;22.18;45.16
43488;BME280;29078;41.932;25.554;2023-07-29T04:43:27;99380.06;;;22.25;45.49
43488;BME280;29078;41.932;25.554;2023-07-29T04:45:53;99369.06;;;22.26;45.18
43488;BME280;29078;41.932;25.554;2023-07-29T04:48:18;99380.13;;;22.30;45.83
43488;BME280;29078;41.932;25.554;2023-07-29T04:50:43;99379.09;;;22.36;45.56
43488;BME280;29078;41.932;25.554;2023-07-29T04:53:08;99377.50;;;22.40;45.54
43488;BME280;29078;41.932;25.554;2023-07-29T04:55:34;99372.16;;;22.45;43.89
43488;BME280;29078;41.932;25.554;2023-07-29T04:57:59;99376.50;;;22.51;44.84
43488;BME280;29078;41.932;25.554;2023-07-29T05:00:25;99382.75;;;22.62;44.08
43488;BME280;29078;41.932;25.554;2023-07-29T05:02:50;99375.28;;;22.74;44.34
43488;BME280;29078;41.932;25.554;2023-07-29T05:07:41;99385.09;;;22.90;44.09
43488;BME280;29078;41.932;25.554;2023-07-29T05:10:07;99392.38;;;22.95;44.22
43488;BME280;29078;41.932;25.554;2023-07-29T05:12:32;99391.31;;;22.96;45.18
43488;BME280;29078;41.932;25.554;2023-07-29T05:14:58;99391.03;;;22.97;44.88
43488;BME280;29078;41.932;25.554;2023-07-29T05:17:23;99390.78;;;22.99;44.42
43488;BME280;29078;41.932;25.554;2023-07-29T05:19:48;99389.75;;;23.05;44.46
43488;BME280;29078;41.932;25.554;2023-07-29T05:22:14;99388.94;;;23.04;44.37
43488;BME280;29078;41.932;25.554;2023-07-29T05:24:39;99392.44;;;23.05;45.28
43488;BME280;29078;41.932;25.554;2023-07-29T05:27:04;99395.94;;;23.05;44.10
43488;BME280;29078;41.932;25.554;2023-07-29T05:29:30;99397.84;;;23.10;44.71
43488;BME280;29078;41.932;25.554;2023-07-29T05:31:55;99391.97;;;23.18;43.08
43488;BME280;29078;41.932;25.554;2023-07-29T05:34:22;99393.31;;;23.21;44.46
43488;BME280;29078;41.932;25.554;2023-07-29T05:36:47;99391.44;;;23.21;43.65
43488;BME280;29078;41.932;25.554;2023-07-29T05:39:13;99392.78;;;23.24;44.78
43488;BME280;29078;41.932;25.554;2023-07-29T05:41:38;99392.25;;;23.27;44.05
43488;BME280;29078;41.932;25.554;2023-07-29T05:44:03;99399.81;;;23.30;44.40
43488;BME280;29078;41.932;25.554;2023-07-29T05:46:29;99397.94;;;23.35;43.37
43488;BME280;29078;41.932;25.554;2023-07-29T05:48:54;99395.81;;;23.42;44.55
43488;BME280;29078;41.932;25.554;2023-07-29T05:51:19;99401.47;;;23.46;44.71
43488;BME280;29078;41.932;25.554;2023-07-29T05:53:45;99400.94;;;23.49;43.88
43488;BME280;29078;41.932;25.554;2023-07-29T05:56:10;99398.53;;;23.53;44.30
43488;BME280;29078;41.932;25.554;2023-07-29T05:58:35;99401.25;;;23.58;44.38
43488;BME280;29078;41.932;25.554;2023-07-29T06:01:00;99400.19;;;23.69;43.53
43488;BME280;29078;41.932;25.554;2023-07-29T06:03:26;99396.69;;;23.73;43.67
43488;BME280;29078;41.932;25.554;2023-07-29T06:05:51;99398.91;;;23.87;43.77
43488;BME280;29078;41.932;25.554;2023-07-29T06:08:17;99389.19;;;23.96;43.05
43488;BME280;29078;41.932;25.554;2023-07-29T06:10:42;99393.50;;;24.07;42.75
43488;BME280;29078;41.932;25.554;2023-07-29T06:13:08;99392.97;;;24.15;42.83
43488;BME280;29078;41.932;25.554;2023-07-29T06:15:33;99390.53;;;24.24;43.18
43488;BME280;29078;41.932;25.554;2023-07-29T06:17:58;99398.13;;;24.32;42.71
43488;BME280;29078;41.932;25.554;2023-07-29T06:20:23;99388.94;;;24.38;43.06
43488;BME280;29078;41.932;25.554;2023-07-29T06:22:49;99385.69;;;24.46;43.07
43488;BME280;29078;41.932;25.554;2023-07-29T06:25:14;99389.19;;;24.57;41.91
43488;BME280;29078;41.932;25.554;2023-07-29T06:27:39;99395.94;;;24.64;41.41
43488;BME280;29078;41.932;25.554;2023-07-29T06:30:05;99392.94;;;24.71;40.75
43488;BME280;29078;41.932;25.554;2023-07-29T06:32:31;99390.50;;;24.80;40.40
43488;BME280;29078;41.932;25.554;2023-07-29T06:34:56;99385.59;;;24.87;39.68
43488;BME280;29078;41.932;25.554;2023-07-29T06:37:21;99392.88;;;24.91;39.63
43488;BME280;29078;41.932;25.554;2023-07-29T06:39:47;99392.34;;;24.99;39.92
43488;BME280;29078;41.932;25.554;2023-07-29T06:42:12;99391.22;;;25.06;40.04
43488;BME280;29078;41.932;25.554;2023-07-29T06:44:38;99382.56;;;25.14;40.06
43488;BME280;29078;41.932;25.554;2023-07-29T06:47:03;99385.47;;;25.22;39.67
43488;BME280;29078;41.932;25.554;2023-07-29T06:49:28;99391.41;;;25.29;39.70
43488;BME280;29078;41.932;25.554;2023-07-29T06:51:53;99384.09;;;25.35;39.46
43488;BME280;29078;41.932;25.554;2023-07-29T06:54:19;99389.19;;;25.42;39.04
43488;BME280;29078;41.932;25.554;2023-07-29T06:56:48;99389.94;;;25.52;39.19
43488;BME280;29078;41.932;25.554;2023-07-29T06:59:14;99388.53;;;25.60;38.97
43488;BME280;29078;41.932;25.554;2023-07-29T07:01:39;99392.56;;;25.68;38.31
43488;BME280;29078;41.932;25.554;2023-07-29T07:04:04;99388.47;;;25.75;37.96
43488;BME280;29078;41.932;25.554;2023-07-29T07:06:29;99385.72;;;25.80;37.40
43488;BME280;29078;41.932;25.554;2023-07-29T07:08:55;99389.47;;;25.84;37.41
43488;BME280;29078;41.932;25.554;2023-07-29T07:11:20;99373.72;;;25.91;37.46
43488;BME280;29078;41.932;25.554;2023-07-29T07:13:45;99382.84;;;26.01;37.56
43488;BME280;29078;41.932;25.554;2023-07-29T07:16:11;99380.09;;;26.11;37.88
43488;BME280;29078;41.932;25.554;2023-07-29T07:18:36;99376.78;;;26.19;37.55
43488;BME280;29078;41.932;25.554;2023-07-29T07:21:01;99381.06;;;26.25;37.40
43488;BME280;29078;41.932;25.554;2023-07-29T07:23:26;99369.69;;;26.23;37.38
43488;BME280;29078;41.932;25.554;2023-07-29T07:25:52;99380.19;;;26.29;37.60
43488;BME280;29078;41.932;25.554;2023-07-29T07:28:17;99377.41;;;26.40;37.68
43488;BME280;29078;41.932;25.554;2023-07-29T07:30:42;99377.09;;;26.46;37.74
43488;BME280;29078;41.932;25.554;2023-07-29T07:33:08;99367.75;;;26.57;37.07
43488;BME280;29078;41.932;25.554;2023-07-29T07:35:33;99368.44;;;26.68;37.40
43488;BME280;29078;41.932;25.554;2023-07-29T07:37:58;99374.63;;;26.74;36.75
43488;BME280;29078;41.932;25.554;2023-07-29T07:40:26;99368.38;;;26.78;36.56
43488;BME280;29078;41.932;25.554;2023-07-29T07:42:52;99367.56;;;26.78;36.51
43488;BME280;29078;41.932;25.554;2023-07-29T07:45:17;99358.03;;;26.80;36.28
43488;BME280;29078;41.932;25.554;2023-07-29T07:47:43;99359.59;;;26.86;36.16
43488;BME280;29078;41.932;25.554;2023-07-29T07:50:08;99356.25;;;26.95;36.22
43488;BME280;29078;41.932;25.554;2023-07-29T07:52:33;99351.34;;;26.97;36.15
43488;BME280;29078;41.932;25.554;2023-07-29T07:54:59;99352.41;;;27.01;36.22
43488;BME280;29078;41.932;25.554;2023-07-29T07:57:24;99349.34;;;27.07;36.76
43488;BME280;29078;41.932;25.554;2023-07-29T07:59:49;99340.84;;;27.14;36.41
43488;BME280;29078;41.932;25.554;2023-07-29T08:02:15;99335.81;;;27.26;36.21
43488;BME280;29078;41.932;25.554;2023-07-29T08:04:41;99342.91;;;27.41;35.88
43488;BME280;29078;41.932;25.554;2023-07-29T08:07:06;99336.56;;;27.50;36.21
43488;BME280;29078;41.932;25.554;2023-07-29T08:09:31;99335.84;;;27.64;35.45
43488;BME280;29078;41.932;25.554;2023-07-29T08:11:56;99333.75;;;27.74;34.87
43488;BME280;29078;41.932;25.554;2023-07-29T08:14:22;99330.16;;;27.79;33.98
43488;BME280;29078;41.932;25.554;2023-07-29T08:16:47;99333.09;;;27.82;33.79
43488;BME280;29078;41.932;25.554;2023-07-29T08:19:12;99325.28;;;27.95;35.84
43488;BME280;29078;41.932;25.554;2023-07-29T08:21:38;99321.72;;;28.13;34.38
43488;BME280;29078;41.932;25.554;2023-07-29T08:24:03;99318.56;;;28.25;33.83
43488;BME280;29078;41.932;25.554;2023-07-29T08:26:29;99310.72;;;28.37;33.62
43488;BME280;29078;41.932;25.554;2023-07-29T08:28:54;99326.03;;;28.46;33.66
43488;BME280;29078;41.932;25.554;2023-07-29T08:31:19;99318.78;;;28.56;33.64
43488;BME280;29078;41.932;25.554;2023-07-29T08:33:44;99321.09;;;28.62;32.56
43488;BME280;29078;41.932;25.554;2023-07-29T08:36:10;99317.16;;;28.68;32.61
43488;BME280;29078;41.932;25.554;2023-07-29T08:38:35;99312.25;;;28.84;33.15
43488;BME280;29078;41.932;25.554;2023-07-29T08:43:29;99310.81;;;29.14;31.91
43488;BME280;29078;41.932;25.554;2023-07-29T08:45:58;99304.84;;;29.26;32.27
43488;BME280;29078;41.932;25.554;2023-07-29T08:48:27;99309.94;;;29.41;32.09
43488;BME280;29078;41.932;25.554;2023-07-29T08:50:53;99305.50;;;29.45;31.36
43488;BME280;29078;41.932;25.554;2023-07-29T08:53:19;99301.13;;;29.58;31.34
43488;BME280;29078;41.932;25.554;2023-07-29T08:55:44;99294.63;;;29.67;31.22
43488;BME280;29078;41.932;25.554;2023-07-29T08:58:10;99296.19;;;29.82;31.49
43488;BME280;29078;41.932;25.554;2023-07-29T09:00:35;99296.09;;;29.96;32.11
43488;BME280;29078;41.932;25.554;2023-07-29T09:03:01;99290.78;;;30.13;29.93
43488;BME280;29078;41.932;25.554;2023-07-29T09:05:32;99282.69;;;30.30;31.02
43488;BME280;29078;41.932;25.554;2023-07-29T09:07:57;99280.53;;;30.50;30.58
43488;BME280;29078;41.932;25.554;2023-07-29T09:10:23;99281.88;;;30.61;30.13
43488;BME280;29078;41.932;25.554;2023-07-29T09:12:50;99287.19;;;30.75;29.85
43488;BME280;29078;41.932;25.554;2023-07-29T09:15:26;99277.63;;;30.94;29.35
43488;BME280;29078;41.932;25.554;2023-07-29T09:17:51;99276.19;;;31.06;27.40
43488;BME280;29078;41.932;25.554;2023-07-29T09:20:16;99271.72;;;31.18;29.00
43488;BME280;29078;41.932;25.554;2023-07-29T09:22:48;99261.31;;;31.29;29.35
43488;BME280;29078;41.932;25.554;2023-07-29T09:25:13;99268.34;;;31.47;28.98
43488;BME280;29078;41.932;25.554;2023-07-29T09:27:41;99261.28;;;31.64;28.47
43488;BME280;29078;41.932;25.554;2023-07-29T09:30:06;99261.56;;;31.88;28.34
43488;BME280;29078;41.932;25.554;2023-07-29T09:32:40;99253.81;;;32.07;28.35
43488;BME280;29078;41.932;25.554;2023-07-29T09:35:09;99252.31;;;32.27;27.86
43488;BME280;29078;41.932;25.554;2023-07-29T09:37:35;99246.69;;;32.53;28.01
43488;BME280;29078;41.932;25.554;2023-07-29T09:40:00;99246.31;;;32.63;25.76
43488;BME280;29078;41.932;25.554;2023-07-29T09:42:25;99245.63;;;32.75;26.85
43488;BME280;29078;41.932;25.554;2023-07-29T09:44:51;99244.31;;;32.81;27.02
43488;BME280;29078;41.932;25.554;2023-07-29T09:47:23;99240.31;;;32.99;26.58
43488;BME280;29078;41.932;25.554;2023-07-29T09:49:49;99246.25;;;33.22;25.91
43488;BME280;29078;41.932;25.554;2023-07-29T09:52:21;99248.81;;;33.48;26.36
43488;BME280;29078;41.932;25.554;2023-07-29T09:54:47;99245.50;;;33.55;25.96
43488;BME280;29078;41.932;25.554;2023-07-29T09:57:13;99248.38;;;33.58;24.62
43488;BME280;29078;41.932;25.554;2023-07-29T09:59:39;99230.72;;;33.68;24.50
43488;BME280;29078;41.932;25.554;2023-07-29T10:02:04;99238.34;;;33.62;24.95
43488;BME280;29078;41.932;25.554;2023-07-29T10:04:29;99240.88;;;33.67;23.64
43488;BME280;29078;41.932;25.554;2023-07-29T10:06:55;99225.06;;;33.85;25.75
43488;BME280;29078;41.932;25.554;2023-07-29T10:09:21;99236.41;;;34.08;24.35
43488;BME280;29078;41.932;25.554;2023-07-29T10:11:47;99235.97;;;34.30;24.03
43488;BME280;29078;41.932;25.554;2023-07-29T10:14:14;99229.03;;;34.45;23.64
43488;BME280;29078;41.932;25.554;2023-07-29T10:16:40;99223.19;;;34.59;23.84
43488;BME280;29078;41.932;25.554;2023-07-29T10:19:07;99221.81;;;34.53;23.02
43488;BME280;29078;41.932;25.554;2023-07-29T10:21:32;99218.72;;;34.66;23.27
43488;BME280;29078;41.932;25.554;2023-07-29T10:23:59;99218.13;;;34.85;23.02
43488;BME280;29078;41.932;25.554;2023-07-29T10:26:26;99220.00;;;35.09;22.09
43488;BME280;29078;41.932;25.554;2023-07-29T10:28:53;99205.88;;;35.23;21.70
43488;BME280;29078;41.932;25.554;2023-07-29T10:31:20;99210.78;;;35.29;23.26
43488;BME280;29078;41.932;25.554;2023-07-29T10:33:47;99202.34;;;35.50;22.96
43488;BME280;29078;41.932;25.554;2023-07-29T10:36:13;99202.22;;;35.75;23.33
43488;BME280;29078;41.932;25.554;2023-07-29T10:38:39;99206.81;;;35.71;23.00
43488;BME280;29078;41.932;25.554;2023-07-29T10:41:05;99203.09;;;35.79;22.19
43488;BME280;29078;41.932;25.554;2023-07-29T10:43:35;99198.00;;;35.93;21.84
43488;BME280;29078;41.932;25.554;2023-07-29T10:54:23;99178.91;;;36.47;20.23
43488;BME280;29078;41.932;25.554;2023-07-29T10:56:43;99179.50;;;36.41;21.47
43488;BME280;29078;41.932;25.554;2023-07-29T11:01:37;99186.09;;;36.71;21.52
43488;BME280;29078;41.932;25.554;2023-07-29T11:04:22;99180.97;;;36.89;20.50
43488;BME280;29078;41.932;25.554;2023-07-29T11:09:39;99175.44;;;37.24;20.19
43488;BME280;29078;41.932;25.554;2023-07-29T11:12:05;99175.69;;;37.38;19.73
43488;BME280;29078;41.932;25.554;2023-07-29T11:14:30;99168.78;;;37.48;20.15
43488;BME280;29078;41.932;25.554;2023-07-29T11:16:56;99164.63;;;37.58;20.61
43488;BME280;29078;41.932;25.554;2023-07-29T11:19:21;99169.78;;;37.59;19.52
43488;BME280;29078;41.932;25.554;2023-07-29T11:21:46;99169.25;;;37.73;19.84
43488;BME280;29078;41.932;25.554;2023-07-29T11:24:16;99163.94;;;37.64;18.24
43488;BME280;29078;41.932;25.554;2023-07-29T11:26:45;99160.09;;;37.46;20.42
43488;BME280;29078;41.932;25.554;2023-07-29T11:29:11;99160.47;;;37.67;19.79
43488;BME280;29078;41.932;25.554;2023-07-29T11:31:39;99152.47;;;37.81;19.93
43488;BME280;29078;41.932;25.554;2023-07-29T11:34:06;99156.31;;;38.00;20.32
43488;BME280;29078;41.932;25.554;2023-07-29T11:36:31;99151.81;;;38.14;18.19
43488;BME280;29078;41.932;25.554;2023-07-29T11:38:57;99154.00;;;38.28;18.55
43488;BME280;29078;41.932;25.554;2023-07-29T11:41:22;99144.88;;;38.24;18.82
43488;BME280;29078;41.932;25.554;2023-07-29T11:43:48;99141.16;;;38.13;17.87
43488;BME280;29078;41.932;25.554;2023-07-29T11:46:13;99138.06;;;37.92;17.46
43488;BME280;29078;41.932;25.554;2023-07-29T11:48:38;99132.88;;;38.13;18.97
43488;BME280;29078;41.932;25.554;2023-07-29T11:51:04;99142.88;;;38.21;18.60
43488;BME280;29078;41.932;25.554;2023-07-29T11:53:29;99133.13;;;38.27;18.72
43488;BME280;29078;41.932;25.554;2023-07-29T11:55:55;99135.78;;;38.50;18.46
43488;BME280;29078;41.932;25.554;2023-07-29T11:58:21;99132.72;;;38.59;17.63
43488;BME280;29078;41.932;25.554;2023-07-29T12:00:46;99125.25;;;38.59;17.48
43488;BME280;29078;41.932;25.554;2023-07-29T12:03:12;99119.09;;;38.66;18.79
43488;BME280;29078;41.932;25.554;2023-07-29T12:05:37;99115.66;;;38.76;19.46
43488;BME280;29078;41.932;25.554;2023-07-29T12:08:02;99129.56;;;38.57;18.93
43488;BME280;29078;41.932;25.554;2023-07-29T12:10:28;99116.31;;;38.66;18.53
43488;BME280;29078;41.932;25.554;2023-07-29T12:12:53;99120.41;;;38.79;18.36
43488;BME280;29078;41.932;25.554;2023-07-29T12:15:26;99127.69;;;38.94;17.69
43488;BME280;29078;41.932;25.554;2023-07-29T12:17:58;99117.63;;;39.09;17.97
43488;BME280;29078;41.932;25.554;2023-07-29T12:20:24;99119.56;;;39.05;17.89
43488;BME280;29078;41.932;25.554;2023-07-29T12:22:53;99123.19;;;39.13;18.89
43488;BME280;29078;41.932;25.554;2023-07-29T12:25:19;99118.47;;;38.80;18.03
43488;BME280;29078;41.932;25.554;2023-07-29T12:27:44;99101.59;;;38.88;17.60
43488;BME280;29078;41.932;25.554;2023-07-29T12:30:09;99101.34;;;39.00;17.30
43488;BME280;29078;41.932;25.554;2023-07-29T12:32:42;99097.91;;;39.11;18.38
43488;BME280;29078;41.932;25.554;2023-07-29T12:35:09;99101.16;;;39.20;17.96
43488;BME280;29078;41.932;25.554;2023-07-29T12:37:34;99103.19;;;39.26;17.98
43488;BME280;29078;41.932;25.554;2023-07-29T12:40:00;99095.25;;;39.21;16.75
43488;BME280;29078;41.932;25.554;2023-07-29T12:42:25;99093.63;;;39.17;17.61
43488;BME280;29078;41.932;25.554;2023-07-29T12:44:50;99096.03;;;39.22;17.71
43488;BME280;29078;41.932;25.554;2023-07-29T12:47:15;99092.13;;;39.26;17.22
43488;BME280;29078;41.932;25.554;2023-07-29T12:49:41;99092.78;;;39.09;17.14
43488;BME280;29078;41.932;25.554;2023-07-29T12:52:06;99090.38;;;39.07;17.69
43488;BME280;29078;41.932;25.554;2023-07-29T12:54:31;99101.88;;;39.13;17.33
43488;BME280;29078;41.932;25.554;2023-07-29T12:56:56;99091.31;;;39.22;17.36
43488;BME280;29078;41.932;25.554;2023-07-29T12:59:22;99095.75;;;39.34;17.36
43488;BME280;29078;41.932;25.554;2023-07-29T13:01:47;99094.25;;;39.40;17.45
43488;BME280;29078;41.932;25.554;2023-07-29T13:04:13;99093.13;;;39.45;16.54
43488;BME280;29078;41.932;25.554;2023-07-29T13:06:38;99105.44;;;39.51;16.85